createdAt,value
2023-01-09T00:03:50.003Z,7.29
2023-01-09T00:08:51.366Z,7.25
2023-01-09T00:13:52.740Z,7.24
2023-01-09T00:18:54.219Z,7.21
2023-01-09T00:23:55.646Z,7.18
2023-01-09T00:28:57.572Z,7.17
2023-01-09T00:34:06.433Z,7.13
2023-01-09T00:39:07.831Z,7.04
2023-01-09T00:44:31.839Z,7.01
2023-01-09T00:49:36.003Z,6.97
2023-01-09T00:54:38.046Z,7.02
2023-01-09T00:59:40.072Z,7.07
2023-01-09T01:05:00.162Z,7.12
2023-01-09T01:10:01.580Z,7.19
2023-01-09T01:15:03.575Z,7.28
2023-01-09T01:20:05.852Z,7.33
2023-01-09T01:25:08.629Z,7.43
2023-01-09T01:30:11.512Z,7.45
2023-01-09T01:35:13.270Z,7.50
2023-01-09T01:40:14.597Z,7.49
2023-01-09T01:45:19.383Z,7.49
2023-01-09T01:50:30.089Z,7.45
2023-01-09T01:55:33.318Z,7.44
2023-01-09T02:00:37.004Z,7.45
2023-01-09T02:05:39.155Z,7.45
2023-01-09T02:10:40.951Z,7.43
2023-01-09T02:15:46.797Z,7.43
2023-01-09T02:20:48.691Z,7.44
2023-01-09T02:25:56.387Z,7.54
2023-01-09T02:31:01.122Z,7.66
2023-01-09T02:36:10.129Z,7.81
2023-01-09T02:41:16.813Z,7.92
2023-01-09T02:46:19.904Z,8.05
2023-01-09T02:51:21.263Z,8.13
2023-01-09T02:56:31.407Z,8.16
2023-01-09T03:01:52.051Z,8.19
2023-01-09T03:06:54.142Z,8.25
2023-01-09T03:12:04.575Z,8.30
2023-01-09T03:17:07.716Z,8.34
2023-01-09T03:22:09.149Z,8.37
2023-01-09T03:27:10.650Z,8.26
2023-01-09T03:32:12.256Z,8.22
2023-01-09T03:37:13.881Z,8.16
2023-01-09T03:42:15.211Z,8.15
2023-01-09T03:47:16.551Z,8.09
2023-01-09T03:52:17.856Z,8.04
2023-01-09T03:57:19.196Z,7.96
2023-01-09T04:02:20.560Z,7.91
2023-01-09T04:07:21.876Z,7.91
2023-01-09T04:12:23.282Z,7.87
2023-01-09T04:17:24.600Z,7.84
2023-01-09T04:22:25.913Z,7.81
2023-01-09T04:27:27.281Z,7.79
2023-01-09T04:32:28.649Z,7.77
2023-01-09T04:37:30.065Z,7.75
2023-01-09T04:42:31.391Z,7.75
2023-01-09T04:47:32.776Z,7.74
2023-01-09T04:52:34.089Z,7.75
2023-01-09T04:57:35.880Z,7.77
2023-01-09T05:02:37.696Z,7.72
2023-01-09T05:07:39.217Z,7.71
2023-01-09T05:12:40.646Z,7.73
2023-01-09T05:17:42.004Z,7.77
2023-01-09T05:22:43.323Z,7.78
2023-01-09T05:27:46.226Z,7.81
2023-01-09T05:32:47.672Z,7.81
2023-01-09T05:37:49.001Z,7.76
2023-01-09T05:42:50.342Z,7.67
2023-01-09T05:47:51.668Z,7.53
2023-01-09T05:52:52.999Z,7.41
2023-01-09T05:57:54.317Z,7.39
2023-01-09T06:02:55.741Z,7.43
2023-01-09T06:07:57.091Z,7.45
2023-01-09T06:12:58.418Z,7.36
2023-01-09T06:17:59.738Z,7.34
2023-01-09T06:23:01.178Z,7.33
2023-01-09T06:28:02.533Z,7.34
2023-01-09T06:33:03.918Z,7.32
2023-01-09T06:38:05.297Z,7.34
2023-01-09T06:43:06.631Z,7.38
2023-01-09T06:48:07.971Z,7.46
2023-01-09T06:53:10.584Z,7.49
2023-01-09T06:58:12.196Z,7.53
2023-01-09T07:03:19.484Z,7.59
2023-01-09T07:08:20.861Z,7.66
2023-01-09T07:13:22.190Z,7.67
2023-01-09T07:18:23.518Z,7.68
2023-01-09T07:23:24.830Z,7.70
2023-01-09T07:28:26.325Z,7.71
2023-01-09T07:33:27.818Z,7.71
2023-01-09T07:38:29.251Z,7.71
2023-01-09T07:43:30.619Z,7.69
2023-01-09T07:48:32.204Z,7.64
2023-01-09T07:53:33.643Z,7.64
2023-01-09T07:58:34.965Z,7.66
2023-01-09T08:03:36.315Z,7.67
2023-01-09T08:08:37.703Z,7.70
2023-01-09T08:13:39.032Z,7.81
2023-01-09T08:18:40.414Z,7.97
2023-01-09T08:23:41.846Z,8.10
2023-01-09T08:28:43.444Z,8.13
2023-01-09T08:33:44.795Z,8.21
2023-01-09T08:38:46.157Z,8.25
2023-01-09T08:44:05.973Z,8.29
2023-01-09T08:49:07.539Z,8.42
2023-01-09T08:54:08.840Z,8.51
2023-01-09T08:59:11.138Z,8.55
2023-01-09T09:04:12.494Z,8.57
2023-01-09T09:09:13.866Z,8.63
2023-01-09T09:14:34.117Z,8.65
2023-01-09T09:19:35.461Z,8.72
2023-01-09T09:24:36.863Z,8.66
2023-01-09T09:29:38.493Z,8.63
2023-01-09T09:34:39.823Z,8.61
2023-01-09T09:39:41.185Z,8.68
2023-01-09T09:45:00.663Z,8.76
2023-01-09T09:50:17.257Z,8.87
2023-01-09T09:55:21.114Z,8.98
2023-01-09T10:00:23.415Z,9.05
2023-01-09T10:05:45.034Z,9.12
2023-01-09T10:10:51.917Z,9.22
2023-01-09T10:16:01.430Z,9.26
2023-01-09T10:21:02.723Z,9.29
2023-01-09T10:26:07.156Z,9.30
2023-01-09T10:31:19.706Z,9.19
2023-01-09T10:36:32.445Z,8.83
2023-01-09T10:41:40.305Z,8.38
2023-01-09T10:46:45.569Z,8.03
2023-01-09T10:51:51.044Z,7.85
2023-01-09T10:57:02.240Z,7.79
2023-01-09T11:02:03.663Z,7.74
2023-01-09T11:07:21.881Z,7.75
2023-01-09T11:12:27.770Z,7.76
2023-01-09T11:17:29.075Z,7.79
2023-01-09T11:22:41.604Z,7.80
2023-01-09T11:27:43.079Z,7.78
2023-01-09T11:32:45.013Z,7.76
2023-01-09T11:37:47.573Z,7.68
2023-01-09T11:43:06.084Z,7.69
2023-01-09T11:48:17.664Z,7.66
2023-01-09T11:53:20.251Z,7.73
2023-01-09T11:58:22.093Z,7.79
2023-01-09T12:03:42.106Z,7.77
2023-01-09T12:09:03.976Z,7.74
2023-01-09T12:14:11.572Z,7.81
2023-01-09T12:19:22.132Z,7.90
2023-01-09T12:24:41.728Z,8.04
2023-01-09T12:29:52.151Z,8.22
2023-01-09T12:35:03.040Z,8.41
2023-01-09T12:40:04.410Z,8.30
2023-01-09T12:45:28.262Z,8.22
2023-01-09T12:50:32.529Z,8.17
2023-01-09T12:55:36.851Z,8.07
2023-01-09T13:00:41.587Z,8.01
2023-01-09T13:05:45.401Z,8.07
2023-01-09T13:10:52.407Z,8.07
2023-01-09T13:15:55.723Z,8.17
2023-01-09T13:20:57.925Z,8.32
2023-01-09T13:26:04.432Z,8.39
2023-01-09T13:31:16.033Z,8.41
2023-01-09T13:36:24.481Z,8.44
2023-01-09T13:41:45.885Z,8.42
2023-01-09T13:46:48.637Z,8.14
2023-01-09T13:51:58.484Z,7.85
2023-01-09T13:57:18.395Z,7.86
2023-01-09T14:02:35.043Z,7.83
2023-01-09T14:07:37.345Z,7.92
2023-01-09T14:12:40.588Z,7.97
2023-01-09T14:17:42.245Z,8.04
2023-01-09T14:22:55.851Z,8.13
2023-01-09T14:27:57.985Z,8.19
2023-01-09T14:33:23.577Z,8.22
2023-01-09T14:38:34.186Z,8.22
2023-01-09T14:43:52.563Z,8.21
2023-01-09T14:48:53.866Z,8.11
2023-01-09T14:53:56.059Z,8.05
2023-01-09T14:59:04.640Z,8.05
2023-01-09T15:04:13.122Z,8.03
2023-01-09T15:09:24.363Z,8.01
2023-01-09T15:14:33.692Z,8.00
2023-01-09T15:19:35.024Z,7.97
2023-01-09T15:24:36.469Z,7.90
2023-01-09T15:29:37.970Z,7.76
2023-01-09T15:34:39.514Z,7.61
2023-01-09T15:39:40.925Z,7.51
2023-01-09T15:44:44.205Z,7.42
2023-01-09T15:49:46.460Z,7.33
2023-01-09T15:54:49.026Z,7.34
2023-01-09T15:59:50.632Z,7.43
2023-01-09T16:04:53.057Z,7.41
2023-01-09T16:09:54.557Z,7.36
2023-01-09T16:14:57.650Z,7.32
2023-01-09T16:20:12.917Z,7.23
2023-01-09T16:25:36.948Z,7.12
2023-01-09T16:30:39.433Z,7.05
2023-01-09T16:35:40.772Z,7.00
2023-01-09T16:41:19.873Z,6.97
2023-01-09T16:46:21.382Z,6.89
2023-01-09T16:51:25.603Z,6.83
2023-01-09T16:56:29.621Z,6.74
2023-01-09T17:01:31.098Z,6.64
2023-01-09T17:06:32.561Z,6.62
2023-01-09T17:11:33.992Z,6.60
2023-01-09T17:16:36.173Z,6.60
2023-01-09T17:21:38.076Z,6.55
2023-01-09T17:26:59.321Z,6.53
2023-01-09T17:32:00.918Z,6.48
2023-01-09T17:37:04.370Z,6.45
2023-01-09T17:42:06.239Z,6.43
2023-01-09T17:47:13.663Z,6.42
2023-01-09T17:52:15.096Z,6.42
2023-01-09T17:57:17.423Z,6.40
2023-01-09T18:02:19.104Z,6.38
2023-01-09T18:07:20.848Z,6.35
2023-01-09T18:12:22.243Z,6.32
2023-01-09T18:17:23.710Z,6.30
2023-01-09T18:22:25.309Z,6.31
2023-01-09T18:27:27.261Z,6.34
2023-01-09T18:32:28.784Z,6.39
2023-01-09T18:37:30.222Z,6.42
2023-01-09T18:42:31.596Z,6.43
2023-01-09T18:47:33.123Z,6.47
2023-01-09T18:52:34.587Z,6.47
2023-01-09T18:57:36.002Z,6.47
2023-01-09T19:02:37.466Z,6.40
2023-01-09T19:07:38.853Z,6.43
2023-01-09T19:12:40.243Z,6.47
2023-01-09T19:17:41.730Z,6.50
2023-01-09T19:22:43.163Z,6.48
2023-01-09T19:27:46.659Z,6.47
2023-01-09T19:32:48.043Z,6.45
2023-01-09T19:37:49.746Z,6.45
2023-01-09T19:42:55.407Z,6.48
2023-01-09T19:47:57.143Z,6.51
2023-01-09T19:52:58.502Z,6.50
2023-01-09T19:57:59.938Z,6.51
2023-01-09T20:03:01.500Z,6.60
2023-01-09T20:08:06.237Z,6.68
2023-01-09T20:13:07.849Z,6.75
2023-01-09T20:18:10.291Z,6.80
2023-01-09T20:23:16.596Z,6.86
2023-01-09T20:28:18.100Z,6.88
2023-01-09T20:33:20.700Z,6.88
2023-01-09T20:38:23.542Z,6.90
2023-01-09T20:43:29.833Z,6.92
2023-01-09T20:48:31.276Z,7.03
2023-01-09T20:53:32.861Z,7.12
2023-01-09T20:58:34.265Z,7.18
2023-01-09T21:03:35.729Z,7.25
2023-01-09T21:08:37.286Z,7.30
2023-01-09T21:13:39.035Z,7.32
2023-01-09T21:18:40.630Z,7.33
2023-01-09T21:23:49.058Z,7.27
2023-01-09T21:28:54.925Z,7.19
2023-01-09T21:33:56.562Z,7.11
2023-01-09T21:38:58.726Z,7.04
2023-01-09T21:44:18.823Z,6.92
2023-01-09T21:49:20.897Z,6.82
2023-01-09T21:54:25.492Z,6.74
2023-01-09T21:59:27.214Z,6.62
2023-01-09T22:04:29.524Z,6.53
2023-01-09T22:09:30.969Z,6.44
2023-01-09T22:14:32.351Z,6.41
2023-01-09T22:19:33.783Z,6.40
2023-01-09T22:24:35.444Z,6.41
2023-01-09T22:29:36.793Z,6.39
2023-01-09T22:34:39.190Z,6.37
2023-01-09T22:39:40.526Z,6.31
2023-01-09T22:44:41.879Z,6.25
2023-01-09T22:49:52.486Z,6.19
2023-01-09T22:54:55.066Z,6.11
2023-01-09T22:59:56.430Z,6.08
2023-01-09T23:04:58.335Z,6.06
2023-01-09T23:10:01.891Z,6.09
2023-01-09T23:15:03.394Z,6.23
2023-01-09T23:20:05.023Z,6.30
2023-01-09T23:25:06.602Z,6.30
2023-01-09T23:30:09.729Z,6.25
2023-01-09T23:35:11.079Z,6.25
2023-01-09T23:40:12.520Z,6.21
2023-01-09T23:45:13.906Z,6.15
2023-01-09T23:50:15.537Z,6.15
2023-01-09T23:55:16.874Z,6.28
